<?xml version="1.0" encoding="UTF-8" standalone="no" ?>
<gpx xmlns="http://www.topografix.com/GPX/1/1" xmlns:xsi="http://www.w3.org/2001/XMLSchema-instance" xsi:schemaLocation="http://www.topografix.com/GPX/1/1 http://www.topografix.com/GPX/1/1/gpx.xsd" version="1.1" creator="VisuGPX - https://www.visugpx.com">
  <metadata>
    <name>Crêtes des Vosges - Jour 1</name>
    <desc><![CDATA[Premier jour de ma tentative de traversée des Vosges. Obersteinbach-Niederbronn les Bains

J'ai fait cette étape avec mon père et mon chien.]]></desc>
  </metadata>
  <trk>
    <name><![CDATA[Track 001]]></name>
    <trkseg>
      <trkpt lat="49.03508" lon="7.69088">
        <ele>240.5</ele>
        <time>2012-08-15T11:08:13Z</time>
      </trkpt>
      <trkpt lat="49.03479" lon="7.69047">
        <ele>244.8</ele>
        <time>2012-08-15T11:08:47Z</time>
      </trkpt>
      <trkpt lat="49.03448" lon="7.69001">
        <ele>244.3</ele>
        <time>2012-08-15T11:09:24Z</time>
      </trkpt>
      <trkpt lat="49.03408" lon="7.68966">
        <ele>240</ele>
        <time>2012-08-15T11:10:08Z</time>
      </trkpt>
      <trkpt lat="49.03362" lon="7.68938">
        <ele>248.2</ele>
        <time>2012-08-15T11:11:07Z</time>
      </trkpt>
      <trkpt lat="49.03316" lon="7.68896">
        <ele>242.9</ele>
        <time>2012-08-15T11:11:50Z</time>
      </trkpt>
      <trkpt lat="49.03275" lon="7.68855">
        <ele>251</ele>
        <time>2012-08-15T11:12:25Z</time>
      </trkpt>
      <trkpt lat="49.03235" lon="7.68824">
        <ele>253.4</ele>
        <time>2012-08-15T11:13:01Z</time>
      </trkpt>
      <trkpt lat="49.03192" lon="7.68796">
        <ele>263.1</ele>
        <time>2012-08-15T11:13:39Z</time>
      </trkpt>
      <trkpt lat="49.03149" lon="7.68773">
        <ele>281.8</ele>
        <time>2012-08-15T11:14:15Z</time>
      </trkpt>
      <trkpt lat="49.03108" lon="7.68749">
        <ele>272.7</ele>
        <time>2012-08-15T11:14:50Z</time>
      </trkpt>
      <trkpt lat="49.03073" lon="7.68735">
        <ele>269.3</ele>
        <time>2012-08-15T11:15:51Z</time>
      </trkpt>
      <trkpt lat="49.03028" lon="7.68726">
        <ele>269.8</ele>
        <time>2012-08-15T11:16:30Z</time>
      </trkpt>
      <trkpt lat="49.02981" lon="7.68701">
        <ele>274.1</ele>
        <time>2012-08-15T11:17:13Z</time>
      </trkpt>
      <trkpt lat="49.02945" lon="7.68657">
        <ele>273.6</ele>
        <time>2012-08-15T11:17:56Z</time>
      </trkpt>
      <trkpt lat="49.02892" lon="7.68597">
        <ele>273.6</ele>
        <time>2012-08-15T11:19:03Z</time>
      </trkpt>
      <trkpt lat="49.02839" lon="7.68517">
        <ele>289.5</ele>
        <time>2012-08-15T11:20:11Z</time>
      </trkpt>
      <trkpt lat="49.02797" lon="7.68479">
        <ele>305.8</ele>
        <time>2012-08-15T11:20:53Z</time>
      </trkpt>
      <trkpt lat="49.02743" lon="7.68412">
        <ele>316.4</ele>
        <time>2012-08-15T11:21:55Z</time>
      </trkpt>
      <trkpt lat="49.02696" lon="7.6834">
        <ele>315.9</ele>
        <time>2012-08-15T11:24:00Z</time>
      </trkpt>
      <trkpt lat="49.02653" lon="7.68307">
        <ele>302</ele>
        <time>2012-08-15T11:24:43Z</time>
      </trkpt>
      <trkpt lat="49.02609" lon="7.6827">
        <ele>298.1</ele>
        <time>2012-08-15T11:25:30Z</time>
      </trkpt>
      <trkpt lat="49.0257" lon="7.68224">
        <ele>300.1</ele>
        <time>2012-08-15T11:26:21Z</time>
      </trkpt>
      <trkpt lat="49.02521" lon="7.68166">
        <ele>300.5</ele>
        <time>2012-08-15T11:27:31Z</time>
      </trkpt>
      <trkpt lat="49.0247" lon="7.68067">
        <ele>297.7</ele>
        <time>2012-08-15T11:29:06Z</time>
      </trkpt>
      <trkpt lat="49.02412" lon="7.67902">
        <ele>300.5</ele>
        <time>2012-08-15T11:31:22Z</time>
      </trkpt>
      <trkpt lat="49.02365" lon="7.67795">
        <ele>327.9</ele>
        <time>2012-08-15T11:32:44Z</time>
      </trkpt>
      <trkpt lat="49.02328" lon="7.67729">
        <ele>344.3</ele>
        <time>2012-08-15T11:33:50Z</time>
      </trkpt>
      <trkpt lat="49.02294" lon="7.67681">
        <ele>362.6</ele>
        <time>2012-08-15T11:37:16Z</time>
      </trkpt>
      <trkpt lat="49.02256" lon="7.67742">
        <ele>371.7</ele>
        <time>2012-08-15T11:40:37Z</time>
      </trkpt>
      <trkpt lat="49.02203" lon="7.67815">
        <ele>373.1</ele>
        <time>2012-08-15T11:41:44Z</time>
      </trkpt>
      <trkpt lat="49.02156" lon="7.67921">
        <ele>375.1</ele>
        <time>2012-08-15T11:45:55Z</time>
      </trkpt>
      <trkpt lat="49.02162" lon="7.68018">
        <ele>363.5</ele>
        <time>2012-08-15T11:46:53Z</time>
      </trkpt>
      <trkpt lat="49.02178" lon="7.68099">
        <ele>359.2</ele>
        <time>2012-08-15T11:47:40Z</time>
      </trkpt>
      <trkpt lat="49.02184" lon="7.68181">
        <ele>344.8</ele>
        <time>2012-08-15T11:48:27Z</time>
      </trkpt>
      <trkpt lat="49.02119" lon="7.6822">
        <ele>349.6</ele>
        <time>2012-08-15T11:49:28Z</time>
      </trkpt>
      <trkpt lat="49.02073" lon="7.68245">
        <ele>354.4</ele>
        <time>2012-08-15T11:50:17Z</time>
      </trkpt>
      <trkpt lat="49.02017" lon="7.68221">
        <ele>360.2</ele>
        <time>2012-08-15T11:51:33Z</time>
      </trkpt>
      <trkpt lat="49.01967" lon="7.68186">
        <ele>355.3</ele>
        <time>2012-08-15T11:52:19Z</time>
      </trkpt>
      <trkpt lat="49.01919" lon="7.68164">
        <ele>354.4</ele>
        <time>2012-08-15T11:52:59Z</time>
      </trkpt>
      <trkpt lat="49.0187" lon="7.68171">
        <ele>359.2</ele>
        <time>2012-08-15T11:53:43Z</time>
      </trkpt>
      <trkpt lat="49.01805" lon="7.68184">
        <ele>361.1</ele>
        <time>2012-08-15T11:54:43Z</time>
      </trkpt>
      <trkpt lat="49.0171" lon="7.6819">
        <ele>340</ele>
        <time>2012-08-15T11:55:57Z</time>
      </trkpt>
      <trkpt lat="49.01648" lon="7.68216">
        <ele>329.9</ele>
        <time>2012-08-15T11:56:50Z</time>
      </trkpt>
      <trkpt lat="49.01565" lon="7.68277">
        <ele>333.7</ele>
        <time>2012-08-15T11:58:22Z</time>
      </trkpt>
      <trkpt lat="49.01502" lon="7.68281">
        <ele>321.2</ele>
        <time>2012-08-15T11:59:13Z</time>
      </trkpt>
      <trkpt lat="49.01432" lon="7.68278">
        <ele>308.2</ele>
        <time>2012-08-15T12:00:07Z</time>
      </trkpt>
      <trkpt lat="49.01373" lon="7.68258">
        <ele>296.7</ele>
        <time>2012-08-15T12:00:49Z</time>
      </trkpt>
      <trkpt lat="49.01356" lon="7.68274">
        <ele>353.4</ele>
        <time>2012-08-15T12:01:42Z</time>
      </trkpt>
      <trkpt lat="49.01333" lon="7.68399">
        <ele>403.4</ele>
        <time>2012-08-15T12:03:26Z</time>
      </trkpt>
      <trkpt lat="49.01303" lon="7.68487">
        <ele>429.4</ele>
        <time>2012-08-15T12:07:18Z</time>
      </trkpt>
      <trkpt lat="49.01263" lon="7.68405">
        <ele>471.7</ele>
        <time>2012-08-15T12:11:25Z</time>
      </trkpt>
      <trkpt lat="49.01218" lon="7.6848">
        <ele>488.5</ele>
        <time>2012-08-15T12:13:02Z</time>
      </trkpt>
      <trkpt lat="49.01151" lon="7.68519">
        <ele>497.6</ele>
        <time>2012-08-15T12:14:18Z</time>
      </trkpt>
      <trkpt lat="49.01103" lon="7.68456">
        <ele>496.2</ele>
        <time>2012-08-15T12:15:19Z</time>
      </trkpt>
      <trkpt lat="49.01054" lon="7.68452">
        <ele>489</ele>
        <time>2012-08-15T12:16:05Z</time>
      </trkpt>
      <trkpt lat="49.01005" lon="7.68478">
        <ele>498.6</ele>
        <time>2012-08-15T12:16:56Z</time>
      </trkpt>
      <trkpt lat="49.00952" lon="7.68502">
        <ele>498.1</ele>
        <time>2012-08-15T12:17:53Z</time>
      </trkpt>
      <trkpt lat="49.00898" lon="7.68569">
        <ele>504.8</ele>
        <time>2012-08-15T12:19:44Z</time>
      </trkpt>
      <trkpt lat="49.00876" lon="7.6863">
        <ele>516.4</ele>
        <time>2012-08-15T12:20:25Z</time>
      </trkpt>
      <trkpt lat="49.00832" lon="7.68669">
        <ele>515.4</ele>
        <time>2012-08-15T12:21:06Z</time>
      </trkpt>
      <trkpt lat="49.00787" lon="7.68664">
        <ele>510.6</ele>
        <time>2012-08-15T12:21:51Z</time>
      </trkpt>
      <trkpt lat="49.00747" lon="7.68617">
        <ele>503.9</ele>
        <time>2012-08-15T12:22:39Z</time>
      </trkpt>
      <trkpt lat="49.00688" lon="7.68564">
        <ele>480.3</ele>
        <time>2012-08-15T12:23:43Z</time>
      </trkpt>
      <trkpt lat="49.00644" lon="7.68541">
        <ele>465.4</ele>
        <time>2012-08-15T12:24:55Z</time>
      </trkpt>
      <trkpt lat="49.00672" lon="7.68587">
        <ele>463.5</ele>
        <time>2012-08-15T12:25:28Z</time>
      </trkpt>
      <trkpt lat="49.00665" lon="7.68598">
        <ele>463.5</ele>
        <time>2012-08-15T12:26:13Z</time>
      </trkpt>
      <trkpt lat="49.00609" lon="7.68563">
        <ele>456.8</ele>
        <time>2012-08-15T12:26:58Z</time>
      </trkpt>
      <trkpt lat="49.00562" lon="7.68528">
        <ele>444.3</ele>
        <time>2012-08-15T12:27:47Z</time>
      </trkpt>
      <trkpt lat="49.00517" lon="7.68496">
        <ele>432.3</ele>
        <time>2012-08-15T12:28:37Z</time>
      </trkpt>
      <trkpt lat="49.00475" lon="7.6846">
        <ele>425.5</ele>
        <time>2012-08-15T12:29:26Z</time>
      </trkpt>
      <trkpt lat="49.00442" lon="7.68491">
        <ele>409.7</ele>
        <time>2012-08-15T12:30:17Z</time>
      </trkpt>
      <trkpt lat="49.00398" lon="7.6847">
        <ele>402.9</ele>
        <time>2012-08-15T12:31:00Z</time>
      </trkpt>
      <trkpt lat="49.00345" lon="7.68457">
        <ele>391.4</ele>
        <time>2012-08-15T12:31:49Z</time>
      </trkpt>
      <trkpt lat="49.00295" lon="7.68458">
        <ele>384.7</ele>
        <time>2012-08-15T12:32:35Z</time>
      </trkpt>
      <trkpt lat="49.00241" lon="7.68458">
        <ele>376.5</ele>
        <time>2012-08-15T12:33:27Z</time>
      </trkpt>
      <trkpt lat="49.00185" lon="7.68458">
        <ele>367.4</ele>
        <time>2012-08-15T12:34:15Z</time>
      </trkpt>
      <trkpt lat="49.00103" lon="7.68415">
        <ele>358.7</ele>
        <time>2012-08-15T12:35:48Z</time>
      </trkpt>
      <trkpt lat="49.00035" lon="7.68319">
        <ele>357.3</ele>
        <time>2012-08-15T12:38:11Z</time>
      </trkpt>
      <trkpt lat="48.9998" lon="7.68289">
        <ele>343.8</ele>
        <time>2012-08-15T12:38:59Z</time>
      </trkpt>
      <trkpt lat="48.99928" lon="7.68313">
        <ele>340.9</ele>
        <time>2012-08-15T12:39:51Z</time>
      </trkpt>
      <trkpt lat="48.99851" lon="7.68305">
        <ele>336.1</ele>
        <time>2012-08-15T12:40:59Z</time>
      </trkpt>
      <trkpt lat="48.99792" lon="7.68257">
        <ele>330.4</ele>
        <time>2012-08-15T12:41:44Z</time>
      </trkpt>
      <trkpt lat="48.99751" lon="7.68189">
        <ele>329.4</ele>
        <time>2012-08-15T12:42:40Z</time>
      </trkpt>
      <trkpt lat="48.99742" lon="7.68094">
        <ele>321.2</ele>
        <time>2012-08-15T12:43:57Z</time>
      </trkpt>
      <trkpt lat="48.99746" lon="7.68091">
        <ele>324.6</ele>
        <time>2012-08-15T12:44:58Z</time>
      </trkpt>
      <trkpt lat="48.99714" lon="7.68089">
        <ele>320.3</ele>
        <time>2012-08-15T12:45:45Z</time>
      </trkpt>
      <trkpt lat="48.99701" lon="7.68029">
        <ele>318.8</ele>
        <time>2012-08-15T12:46:28Z</time>
      </trkpt>
      <trkpt lat="48.99711" lon="7.67964">
        <ele>315.9</ele>
        <time>2012-08-15T12:47:11Z</time>
      </trkpt>
      <trkpt lat="48.99717" lon="7.67896">
        <ele>316.4</ele>
        <time>2012-08-15T12:47:58Z</time>
      </trkpt>
      <trkpt lat="48.99746" lon="7.67821">
        <ele>313.5</ele>
        <time>2012-08-15T12:48:51Z</time>
      </trkpt>
      <trkpt lat="48.9971" lon="7.67712">
        <ele>312.6</ele>
        <time>2012-08-15T12:49:58Z</time>
      </trkpt>
      <trkpt lat="48.99669" lon="7.6764">
        <ele>303</ele>
        <time>2012-08-15T12:50:54Z</time>
      </trkpt>
      <trkpt lat="48.99613" lon="7.67568">
        <ele>301</ele>
        <time>2012-08-15T12:51:54Z</time>
      </trkpt>
      <trkpt lat="48.99558" lon="7.67506">
        <ele>286.6</ele>
        <time>2012-08-15T12:52:45Z</time>
      </trkpt>
      <trkpt lat="48.99535" lon="7.67454">
        <ele>278.4</ele>
        <time>2012-08-15T12:53:33Z</time>
      </trkpt>
      <trkpt lat="48.99577" lon="7.67426">
        <ele>266.9</ele>
        <time>2012-08-15T12:54:23Z</time>
      </trkpt>
      <trkpt lat="48.99583" lon="7.67358">
        <ele>249.1</ele>
        <time>2012-08-15T12:55:09Z</time>
      </trkpt>
      <trkpt lat="48.99556" lon="7.67299">
        <ele>245.3</ele>
        <time>2012-08-15T12:55:51Z</time>
      </trkpt>
      <trkpt lat="48.99485" lon="7.67264">
        <ele>245.3</ele>
        <time>2012-08-15T12:57:00Z</time>
      </trkpt>
      <trkpt lat="48.99428" lon="7.67237">
        <ele>245.3</ele>
        <time>2012-08-15T12:57:47Z</time>
      </trkpt>
      <trkpt lat="48.99367" lon="7.67213">
        <ele>250.6</ele>
        <time>2012-08-15T12:58:36Z</time>
      </trkpt>
      <trkpt lat="48.99311" lon="7.67168">
        <ele>248.6</ele>
        <time>2012-08-15T12:59:36Z</time>
      </trkpt>
      <trkpt lat="48.99257" lon="7.67114">
        <ele>242.9</ele>
        <time>2012-08-15T13:00:28Z</time>
      </trkpt>
      <trkpt lat="48.99239" lon="7.67036">
        <ele>224.1</ele>
        <time>2012-08-15T13:01:12Z</time>
      </trkpt>
      <trkpt lat="48.99236" lon="7.66958">
        <ele>203</ele>
        <time>2012-08-15T13:01:55Z</time>
      </trkpt>
      <trkpt lat="48.99232" lon="7.66887">
        <ele>199.1</ele>
        <time>2012-08-15T13:02:31Z</time>
      </trkpt>
      <trkpt lat="48.99229" lon="7.66818">
        <ele>196.2</ele>
        <time>2012-08-15T13:03:08Z</time>
      </trkpt>
      <trkpt lat="48.99223" lon="7.66748">
        <ele>204.4</ele>
        <time>2012-08-15T13:03:45Z</time>
      </trkpt>
      <trkpt lat="48.99223" lon="7.66673">
        <ele>220.3</ele>
        <time>2012-08-15T13:04:29Z</time>
      </trkpt>
      <trkpt lat="48.99214" lon="7.66599">
        <ele>243.4</ele>
        <time>2012-08-15T13:05:10Z</time>
      </trkpt>
      <trkpt lat="48.99211" lon="7.66522">
        <ele>253</ele>
        <time>2012-08-15T13:05:46Z</time>
      </trkpt>
      <trkpt lat="48.99223" lon="7.66453">
        <ele>243.8</ele>
        <time>2012-08-15T13:06:22Z</time>
      </trkpt>
      <trkpt lat="48.99245" lon="7.66387">
        <ele>244.8</ele>
        <time>2012-08-15T13:07:02Z</time>
      </trkpt>
      <trkpt lat="48.9927" lon="7.66324">
        <ele>248.6</ele>
        <time>2012-08-15T13:07:41Z</time>
      </trkpt>
      <trkpt lat="48.99295" lon="7.66264">
        <ele>260.2</ele>
        <time>2012-08-15T13:08:21Z</time>
      </trkpt>
      <trkpt lat="48.99331" lon="7.66205">
        <ele>263.5</ele>
        <time>2012-08-15T13:09:05Z</time>
      </trkpt>
      <trkpt lat="48.99381" lon="7.66166">
        <ele>258.7</ele>
        <time>2012-08-15T13:09:42Z</time>
      </trkpt>
      <trkpt lat="48.99423" lon="7.66124">
        <ele>260.2</ele>
        <time>2012-08-15T13:10:30Z</time>
      </trkpt>
      <trkpt lat="48.9944" lon="7.66062">
        <ele>247.7</ele>
        <time>2012-08-15T13:11:25Z</time>
      </trkpt>
      <trkpt lat="48.99454" lon="7.66016">
        <ele>232.8</ele>
        <time>2012-08-15T13:12:17Z</time>
      </trkpt>
      <trkpt lat="48.99488" lon="7.65982">
        <ele>232.8</ele>
        <time>2012-08-15T13:13:09Z</time>
      </trkpt>
      <trkpt lat="48.99508" lon="7.6592">
        <ele>230.4</ele>
        <time>2012-08-15T13:13:44Z</time>
      </trkpt>
      <trkpt lat="48.99519" lon="7.65885">
        <ele>227.5</ele>
        <time>2012-08-15T13:19:10Z</time>
      </trkpt>
      <trkpt lat="48.99501" lon="7.65825">
        <ele>222.2</ele>
        <time>2012-08-15T13:19:48Z</time>
      </trkpt>
      <trkpt lat="48.99453" lon="7.6577">
        <ele>224.1</ele>
        <time>2012-08-15T13:20:47Z</time>
      </trkpt>
      <trkpt lat="48.99458" lon="7.65699">
        <ele>218.8</ele>
        <time>2012-08-15T13:21:28Z</time>
      </trkpt>
      <trkpt lat="48.99446" lon="7.65629">
        <ele>219.8</ele>
        <time>2012-08-15T13:22:09Z</time>
      </trkpt>
      <trkpt lat="48.99423" lon="7.65576">
        <ele>218.4</ele>
        <time>2012-08-15T13:22:46Z</time>
      </trkpt>
      <trkpt lat="48.99399" lon="7.65515">
        <ele>216</ele>
        <time>2012-08-15T13:23:29Z</time>
      </trkpt>
      <trkpt lat="48.99379" lon="7.65455">
        <ele>222.7</ele>
        <time>2012-08-15T13:24:10Z</time>
      </trkpt>
      <trkpt lat="48.99353" lon="7.65394">
        <ele>228.5</ele>
        <time>2012-08-15T13:24:58Z</time>
      </trkpt>
      <trkpt lat="48.99327" lon="7.65336">
        <ele>234.2</ele>
        <time>2012-08-15T13:25:44Z</time>
      </trkpt>
      <trkpt lat="48.99312" lon="7.65267">
        <ele>241.9</ele>
        <time>2012-08-15T13:26:22Z</time>
      </trkpt>
      <trkpt lat="48.99306" lon="7.65201">
        <ele>245.3</ele>
        <time>2012-08-15T13:27:01Z</time>
      </trkpt>
      <trkpt lat="48.99317" lon="7.65123">
        <ele>246.2</ele>
        <time>2012-08-15T13:27:51Z</time>
      </trkpt>
      <trkpt lat="48.99323" lon="7.65047">
        <ele>258.7</ele>
        <time>2012-08-15T13:33:10Z</time>
      </trkpt>
      <trkpt lat="48.99342" lon="7.64973">
        <ele>263.1</ele>
        <time>2012-08-15T13:33:44Z</time>
      </trkpt>
      <trkpt lat="48.99357" lon="7.64896">
        <ele>270.7</ele>
        <time>2012-08-15T13:34:20Z</time>
      </trkpt>
      <trkpt lat="48.99382" lon="7.64819">
        <ele>267.4</ele>
        <time>2012-08-15T13:35:00Z</time>
      </trkpt>
      <trkpt lat="48.99421" lon="7.64731">
        <ele>249.6</ele>
        <time>2012-08-15T13:35:59Z</time>
      </trkpt>
      <trkpt lat="48.99396" lon="7.64669">
        <ele>257.3</ele>
        <time>2012-08-15T13:36:42Z</time>
      </trkpt>
      <trkpt lat="48.99366" lon="7.64599">
        <ele>273.6</ele>
        <time>2012-08-15T13:37:38Z</time>
      </trkpt>
      <trkpt lat="48.99319" lon="7.64514">
        <ele>290.9</ele>
        <time>2012-08-15T13:39:08Z</time>
      </trkpt>
      <trkpt lat="48.99281" lon="7.64451">
        <ele>306.3</ele>
        <time>2012-08-15T13:40:17Z</time>
      </trkpt>
      <trkpt lat="48.99213" lon="7.64378">
        <ele>319.3</ele>
        <time>2012-08-15T13:42:15Z</time>
      </trkpt>
      <trkpt lat="48.99163" lon="7.64347">
        <ele>326</ele>
        <time>2012-08-15T13:43:14Z</time>
      </trkpt>
      <trkpt lat="48.99117" lon="7.64327">
        <ele>340</ele>
        <time>2012-08-15T13:44:25Z</time>
      </trkpt>
      <trkpt lat="48.9907" lon="7.64313">
        <ele>353.9</ele>
        <time>2012-08-15T13:45:21Z</time>
      </trkpt>
      <trkpt lat="48.99027" lon="7.64274">
        <ele>367.8</ele>
        <time>2012-08-15T13:46:26Z</time>
      </trkpt>
      <trkpt lat="48.98969" lon="7.64227">
        <ele>380.3</ele>
        <time>2012-08-15T13:47:55Z</time>
      </trkpt>
      <trkpt lat="48.98915" lon="7.64166">
        <ele>386.1</ele>
        <time>2012-08-15T13:49:15Z</time>
      </trkpt>
      <trkpt lat="48.98845" lon="7.64084">
        <ele>398.1</ele>
        <time>2012-08-15T13:51:14Z</time>
      </trkpt>
      <trkpt lat="48.98783" lon="7.64012">
        <ele>418.8</ele>
        <time>2012-08-15T13:52:53Z</time>
      </trkpt>
      <trkpt lat="48.98715" lon="7.63943">
        <ele>435.6</ele>
        <time>2012-08-15T13:55:36Z</time>
      </trkpt>
      <trkpt lat="48.98604" lon="7.63898">
        <ele>448.6</ele>
        <time>2012-08-15T13:58:32Z</time>
      </trkpt>
      <trkpt lat="48.98521" lon="7.63779">
        <ele>458.7</ele>
        <time>2012-08-15T14:00:33Z</time>
      </trkpt>
      <trkpt lat="48.98474" lon="7.6364">
        <ele>484.6</ele>
        <time>2012-08-15T14:02:20Z</time>
      </trkpt>
      <trkpt lat="48.98497" lon="7.63463">
        <ele>554.8</ele>
        <time>2012-08-15T14:04:32Z</time>
      </trkpt>
      <trkpt lat="48.98521" lon="7.63349">
        <ele>562</ele>
        <time>2012-08-15T14:06:07Z</time>
      </trkpt>
      <trkpt lat="48.98553" lon="7.63303">
        <ele>523.6</ele>
        <time>2012-08-15T14:06:54Z</time>
      </trkpt>
      <trkpt lat="48.98589" lon="7.63254">
        <ele>508.7</ele>
        <time>2012-08-15T14:07:36Z</time>
      </trkpt>
      <trkpt lat="48.98598" lon="7.6319">
        <ele>507.7</ele>
        <time>2012-08-15T14:08:53Z</time>
      </trkpt>
      <trkpt lat="48.98595" lon="7.63117">
        <ele>494.7</ele>
        <time>2012-08-15T14:09:33Z</time>
      </trkpt>
      <trkpt lat="48.98589" lon="7.63042">
        <ele>491.4</ele>
        <time>2012-08-15T14:10:15Z</time>
      </trkpt>
      <trkpt lat="48.98601" lon="7.62968">
        <ele>490.9</ele>
        <time>2012-08-15T14:10:59Z</time>
      </trkpt>
      <trkpt lat="48.98595" lon="7.62895">
        <ele>498.6</ele>
        <time>2012-08-15T14:11:43Z</time>
      </trkpt>
      <trkpt lat="48.98583" lon="7.62829">
        <ele>502.9</ele>
        <time>2012-08-15T14:12:49Z</time>
      </trkpt>
      <trkpt lat="48.98561" lon="7.62768">
        <ele>503.4</ele>
        <time>2012-08-15T14:13:25Z</time>
      </trkpt>
      <trkpt lat="48.9854" lon="7.62704">
        <ele>506.3</ele>
        <time>2012-08-15T14:14:06Z</time>
      </trkpt>
      <trkpt lat="48.98528" lon="7.62637">
        <ele>517.3</ele>
        <time>2012-08-15T14:14:45Z</time>
      </trkpt>
      <trkpt lat="48.98533" lon="7.62557">
        <ele>513</ele>
        <time>2012-08-15T14:15:25Z</time>
      </trkpt>
      <trkpt lat="48.98542" lon="7.62485">
        <ele>511.1</ele>
        <time>2012-08-15T14:16:03Z</time>
      </trkpt>
      <trkpt lat="48.98549" lon="7.62414">
        <ele>516.4</ele>
        <time>2012-08-15T14:16:50Z</time>
      </trkpt>
      <trkpt lat="48.98556" lon="7.62343">
        <ele>514.9</ele>
        <time>2012-08-15T14:17:36Z</time>
      </trkpt>
      <trkpt lat="48.98561" lon="7.62258">
        <ele>509.2</ele>
        <time>2012-08-15T14:18:38Z</time>
      </trkpt>
      <trkpt lat="48.98579" lon="7.62181">
        <ele>497.1</ele>
        <time>2012-08-15T14:19:19Z</time>
      </trkpt>
      <trkpt lat="48.98583" lon="7.621">
        <ele>498.1</ele>
        <time>2012-08-15T14:20:06Z</time>
      </trkpt>
      <trkpt lat="48.98572" lon="7.62026">
        <ele>512</ele>
        <time>2012-08-15T14:20:53Z</time>
      </trkpt>
      <trkpt lat="48.9856" lon="7.61953">
        <ele>516.8</ele>
        <time>2012-08-15T14:21:42Z</time>
      </trkpt>
      <trkpt lat="48.98541" lon="7.61874">
        <ele>512.5</ele>
        <time>2012-08-15T14:22:30Z</time>
      </trkpt>
      <trkpt lat="48.98522" lon="7.61802">
        <ele>510.1</ele>
        <time>2012-08-15T14:23:12Z</time>
      </trkpt>
      <trkpt lat="48.98485" lon="7.61748">
        <ele>499.5</ele>
        <time>2012-08-15T14:23:59Z</time>
      </trkpt>
      <trkpt lat="48.98433" lon="7.617">
        <ele>504.8</ele>
        <time>2012-08-15T14:25:00Z</time>
      </trkpt>
      <trkpt lat="48.98363" lon="7.61639">
        <ele>526.5</ele>
        <time>2012-08-15T14:26:08Z</time>
      </trkpt>
      <trkpt lat="48.98303" lon="7.61594">
        <ele>533.7</ele>
        <time>2012-08-15T14:27:09Z</time>
      </trkpt>
      <trkpt lat="48.9824" lon="7.61521">
        <ele>545.7</ele>
        <time>2012-08-15T14:28:37Z</time>
      </trkpt>
      <trkpt lat="48.98186" lon="7.6142">
        <ele>540.9</ele>
        <time>2012-08-15T14:30:39Z</time>
      </trkpt>
      <trkpt lat="48.98188" lon="7.61416">
        <ele>545.2</ele>
        <time>2012-08-15T14:31:27Z</time>
      </trkpt>
      <trkpt lat="48.98208" lon="7.61416">
        <ele>541.8</ele>
        <time>2012-08-15T14:36:17Z</time>
      </trkpt>
      <trkpt lat="48.98206" lon="7.61417">
        <ele>532.7</ele>
        <time>2012-08-15T14:36:31Z</time>
      </trkpt>
      <trkpt lat="48.98217" lon="7.61425">
        <ele>541.8</ele>
        <time>2012-08-15T14:45:36Z</time>
      </trkpt>
      <trkpt lat="48.9817" lon="7.61461">
        <ele>517.8</ele>
        <time>2012-08-15T14:46:26Z</time>
      </trkpt>
      <trkpt lat="48.98099" lon="7.61532">
        <ele>520.2</ele>
        <time>2012-08-15T14:48:11Z</time>
      </trkpt>
      <trkpt lat="48.98057" lon="7.61505">
        <ele>530.3</ele>
        <time>2012-08-15T14:50:28Z</time>
      </trkpt>
      <trkpt lat="48.98024" lon="7.6151">
        <ele>548.6</ele>
        <time>2012-08-15T14:51:36Z</time>
      </trkpt>
      <trkpt lat="48.9798" lon="7.61484">
        <ele>560.6</ele>
        <time>2012-08-15T14:52:41Z</time>
      </trkpt>
      <trkpt lat="48.97927" lon="7.61476">
        <ele>576.4</ele>
        <time>2012-08-15T14:53:42Z</time>
      </trkpt>
      <trkpt lat="48.97882" lon="7.61448">
        <ele>582.2</ele>
        <time>2012-08-15T14:54:57Z</time>
      </trkpt>
      <trkpt lat="48.97864" lon="7.61437">
        <ele>582.7</ele>
        <time>2012-08-15T15:12:54Z</time>
      </trkpt>
      <trkpt lat="48.97829" lon="7.61472">
        <ele>579.3</ele>
        <time>2012-08-15T15:14:26Z</time>
      </trkpt>
      <trkpt lat="48.9777" lon="7.61504">
        <ele>565.4</ele>
        <time>2012-08-15T15:15:32Z</time>
      </trkpt>
      <trkpt lat="48.97731" lon="7.61541">
        <ele>538</ele>
        <time>2012-08-15T15:17:04Z</time>
      </trkpt>
      <trkpt lat="48.9771" lon="7.61566">
        <ele>526.9</ele>
        <time>2012-08-15T15:17:58Z</time>
      </trkpt>
      <trkpt lat="48.97681" lon="7.6159">
        <ele>519.2</ele>
        <time>2012-08-15T15:18:48Z</time>
      </trkpt>
      <trkpt lat="48.97641" lon="7.61618">
        <ele>515.9</ele>
        <time>2012-08-15T15:19:45Z</time>
      </trkpt>
      <trkpt lat="48.97568" lon="7.61673">
        <ele>489</ele>
        <time>2012-08-15T15:21:18Z</time>
      </trkpt>
      <trkpt lat="48.97539" lon="7.61731">
        <ele>479.8</ele>
        <time>2012-08-15T15:21:55Z</time>
      </trkpt>
      <trkpt lat="48.97565" lon="7.61775">
        <ele>472.6</ele>
        <time>2012-08-15T15:22:40Z</time>
      </trkpt>
      <trkpt lat="48.97548" lon="7.61827">
        <ele>455.8</ele>
        <time>2012-08-15T15:23:31Z</time>
      </trkpt>
      <trkpt lat="48.97534" lon="7.61881">
        <ele>440.4</ele>
        <time>2012-08-15T15:24:45Z</time>
      </trkpt>
      <trkpt lat="48.97538" lon="7.61926">
        <ele>427.4</ele>
        <time>2012-08-15T15:25:37Z</time>
      </trkpt>
      <trkpt lat="48.97538" lon="7.61993">
        <ele>431.3</ele>
        <time>2012-08-15T15:26:18Z</time>
      </trkpt>
      <trkpt lat="48.97517" lon="7.62053">
        <ele>424.1</ele>
        <time>2012-08-15T15:26:52Z</time>
      </trkpt>
      <trkpt lat="48.97487" lon="7.62094">
        <ele>419.8</ele>
        <time>2012-08-15T15:27:31Z</time>
      </trkpt>
      <trkpt lat="48.97454" lon="7.6211">
        <ele>405.8</ele>
        <time>2012-08-15T15:28:10Z</time>
      </trkpt>
      <trkpt lat="48.97435" lon="7.62115">
        <ele>390.4</ele>
        <time>2012-08-15T15:28:53Z</time>
      </trkpt>
      <trkpt lat="48.974" lon="7.62159">
        <ele>376.5</ele>
        <time>2012-08-15T15:29:33Z</time>
      </trkpt>
      <trkpt lat="48.9737" lon="7.62213">
        <ele>372.2</ele>
        <time>2012-08-15T15:30:19Z</time>
      </trkpt>
      <trkpt lat="48.97349" lon="7.62282">
        <ele>356.3</ele>
        <time>2012-08-15T15:31:04Z</time>
      </trkpt>
      <trkpt lat="48.97313" lon="7.62352">
        <ele>348.6</ele>
        <time>2012-08-15T15:32:08Z</time>
      </trkpt>
      <trkpt lat="48.97273" lon="7.62396">
        <ele>345.7</ele>
        <time>2012-08-15T15:32:57Z</time>
      </trkpt>
      <trkpt lat="48.97225" lon="7.62423">
        <ele>340.4</ele>
        <time>2012-08-15T15:33:44Z</time>
      </trkpt>
      <trkpt lat="48.97175" lon="7.62437">
        <ele>339</ele>
        <time>2012-08-15T15:34:29Z</time>
      </trkpt>
      <trkpt lat="48.97124" lon="7.62446">
        <ele>333.7</ele>
        <time>2012-08-15T15:35:14Z</time>
      </trkpt>
      <trkpt lat="48.97077" lon="7.62462">
        <ele>322.7</ele>
        <time>2012-08-15T15:35:58Z</time>
      </trkpt>
      <trkpt lat="48.97033" lon="7.6248">
        <ele>314.5</ele>
        <time>2012-08-15T15:36:43Z</time>
      </trkpt>
      <trkpt lat="48.96991" lon="7.62481">
        <ele>312.1</ele>
        <time>2012-08-15T15:37:21Z</time>
      </trkpt>
      <trkpt lat="48.96947" lon="7.6246">
        <ele>306.3</ele>
        <time>2012-08-15T15:38:01Z</time>
      </trkpt>
      <trkpt lat="48.96904" lon="7.62441">
        <ele>295.3</ele>
        <time>2012-08-15T15:38:35Z</time>
      </trkpt>
      <trkpt lat="48.96866" lon="7.62417">
        <ele>288.1</ele>
        <time>2012-08-15T15:40:17Z</time>
      </trkpt>
      <trkpt lat="48.96822" lon="7.62396">
        <ele>288.1</ele>
        <time>2012-08-15T15:40:49Z</time>
      </trkpt>
      <trkpt lat="48.96775" lon="7.62386">
        <ele>279.4</ele>
        <time>2012-08-15T15:41:33Z</time>
      </trkpt>
      <trkpt lat="48.96729" lon="7.62381">
        <ele>273.6</ele>
        <time>2012-08-15T15:42:10Z</time>
      </trkpt>
      <trkpt lat="48.96677" lon="7.62367">
        <ele>266.9</ele>
        <time>2012-08-15T15:42:57Z</time>
      </trkpt>
      <trkpt lat="48.96628" lon="7.62352">
        <ele>259.7</ele>
        <time>2012-08-15T15:43:41Z</time>
      </trkpt>
      <trkpt lat="48.9658" lon="7.62332">
        <ele>253</ele>
        <time>2012-08-15T15:44:18Z</time>
      </trkpt>
      <trkpt lat="48.96535" lon="7.6231">
        <ele>253</ele>
        <time>2012-08-15T15:44:54Z</time>
      </trkpt>
      <trkpt lat="48.96489" lon="7.62305">
        <ele>245.8</ele>
        <time>2012-08-15T15:45:31Z</time>
      </trkpt>
      <trkpt lat="48.96441" lon="7.62299">
        <ele>244.3</ele>
        <time>2012-08-15T15:46:09Z</time>
      </trkpt>
      <trkpt lat="48.96396" lon="7.62289">
        <ele>235.2</ele>
        <time>2012-08-15T15:46:45Z</time>
      </trkpt>
      <trkpt lat="48.96361" lon="7.62328">
        <ele>227</ele>
        <time>2012-08-15T15:47:22Z</time>
      </trkpt>
      <trkpt lat="48.96331" lon="7.62375">
        <ele>221.2</ele>
        <time>2012-08-15T15:48:00Z</time>
      </trkpt>
      <trkpt lat="48.96294" lon="7.62426">
        <ele>208.3</ele>
        <time>2012-08-15T15:48:42Z</time>
      </trkpt>
      <trkpt lat="48.96251" lon="7.62483">
        <ele>193.4</ele>
        <time>2012-08-15T15:49:27Z</time>
      </trkpt>
      <trkpt lat="48.96199" lon="7.62527">
        <ele>178.9</ele>
        <time>2012-08-15T15:50:10Z</time>
      </trkpt>
      <trkpt lat="48.96152" lon="7.6256">
        <ele>170.3</ele>
        <time>2012-08-15T15:50:51Z</time>
      </trkpt>
      <trkpt lat="48.96128" lon="7.62595">
        <ele>183.3</ele>
        <time>2012-08-15T15:51:38Z</time>
      </trkpt>
      <trkpt lat="48.96136" lon="7.62608">
        <ele>187.6</ele>
        <time>2012-08-15T15:55:41Z</time>
      </trkpt>
      <trkpt lat="48.9611" lon="7.62625">
        <ele>170.8</ele>
        <time>2012-08-15T16:05:51Z</time>
      </trkpt>
      <trkpt lat="48.96117" lon="7.62585">
        <ele>196.7</ele>
        <time>2012-08-15T16:06:47Z</time>
      </trkpt>
      <trkpt lat="48.96101" lon="7.6261">
        <ele>201.5</ele>
        <time>2012-08-15T16:07:29Z</time>
      </trkpt>
      <trkpt lat="48.9607" lon="7.62656">
        <ele>202.5</ele>
        <time>2012-08-15T16:08:01Z</time>
      </trkpt>
      <trkpt lat="48.96039" lon="7.62702">
        <ele>202.5</ele>
        <time>2012-08-15T16:08:34Z</time>
      </trkpt>
      <trkpt lat="48.96005" lon="7.62718">
        <ele>202.5</ele>
        <time>2012-08-15T16:11:14Z</time>
      </trkpt>
      <trkpt lat="48.96001" lon="7.62656">
        <ele>205.4</ele>
        <time>2012-08-15T16:11:50Z</time>
      </trkpt>
      <trkpt lat="48.96039" lon="7.62622">
        <ele>204.4</ele>
        <time>2012-08-15T16:12:23Z</time>
      </trkpt>
      <trkpt lat="48.96061" lon="7.62569">
        <ele>205.9</ele>
        <time>2012-08-15T16:12:57Z</time>
      </trkpt>
      <trkpt lat="48.96027" lon="7.62532">
        <ele>204.4</ele>
        <time>2012-08-15T16:13:29Z</time>
      </trkpt>
      <trkpt lat="48.95983" lon="7.62544">
        <ele>201.1</ele>
        <time>2012-08-15T16:14:00Z</time>
      </trkpt>
      <trkpt lat="48.95938" lon="7.62548">
        <ele>200.1</ele>
        <time>2012-08-15T16:14:30Z</time>
      </trkpt>
      <trkpt lat="48.95894" lon="7.62576">
        <ele>198.6</ele>
        <time>2012-08-15T16:15:03Z</time>
      </trkpt>
      <trkpt lat="48.95854" lon="7.62614">
        <ele>188.6</ele>
        <time>2012-08-15T16:15:36Z</time>
      </trkpt>
      <trkpt lat="48.9581" lon="7.62645">
        <ele>190</ele>
        <time>2012-08-15T16:16:07Z</time>
      </trkpt>
      <trkpt lat="48.95768" lon="7.62673">
        <ele>190.5</ele>
        <time>2012-08-15T16:18:58Z</time>
      </trkpt>
      <trkpt lat="48.95725" lon="7.62691">
        <ele>199.1</ele>
        <time>2012-08-15T16:19:34Z</time>
      </trkpt>
      <trkpt lat="48.95678" lon="7.62694">
        <ele>201.5</ele>
        <time>2012-08-15T16:20:10Z</time>
      </trkpt>
      <trkpt lat="48.9563" lon="7.62692">
        <ele>209.7</ele>
        <time>2012-08-15T16:20:52Z</time>
      </trkpt>
      <trkpt lat="48.95661" lon="7.62653">
        <ele>222.7</ele>
        <time>2012-08-15T16:21:43Z</time>
      </trkpt>
      <trkpt lat="48.9562" lon="7.62615">
        <ele>242.4</ele>
        <time>2012-08-15T16:22:26Z</time>
      </trkpt>
      <trkpt lat="48.95604" lon="7.62574">
        <ele>259.7</ele>
        <time>2012-08-15T16:23:30Z</time>
      </trkpt>
      <trkpt lat="48.95587" lon="7.62529">
        <ele>272.2</ele>
        <time>2012-08-15T16:24:31Z</time>
      </trkpt>
      <trkpt lat="48.95541" lon="7.62523">
        <ele>276</ele>
        <time>2012-08-15T16:25:21Z</time>
      </trkpt>
      <trkpt lat="48.95543" lon="7.62457">
        <ele>293.8</ele>
        <time>2012-08-15T16:26:14Z</time>
      </trkpt>
      <trkpt lat="48.95593" lon="7.6247">
        <ele>300.1</ele>
        <time>2012-08-15T16:26:56Z</time>
      </trkpt>
      <trkpt lat="48.95642" lon="7.62475">
        <ele>295.3</ele>
        <time>2012-08-15T16:27:34Z</time>
      </trkpt>
      <trkpt lat="48.95685" lon="7.6244">
        <ele>301.5</ele>
        <time>2012-08-15T16:28:12Z</time>
      </trkpt>
      <trkpt lat="48.95723" lon="7.62385">
        <ele>308.7</ele>
        <time>2012-08-15T16:28:54Z</time>
      </trkpt>
      <trkpt lat="48.95752" lon="7.62324">
        <ele>314.5</ele>
        <time>2012-08-15T16:29:34Z</time>
      </trkpt>
      <trkpt lat="48.95782" lon="7.62263">
        <ele>318.3</ele>
        <time>2012-08-15T16:30:14Z</time>
      </trkpt>
      <trkpt lat="48.95795" lon="7.62195">
        <ele>327.5</ele>
        <time>2012-08-15T16:30:51Z</time>
      </trkpt>
      <trkpt lat="48.95794" lon="7.62124">
        <ele>337.1</ele>
        <time>2012-08-15T16:31:29Z</time>
      </trkpt>
      <trkpt lat="48.95785" lon="7.62053">
        <ele>349.1</ele>
        <time>2012-08-15T16:32:07Z</time>
      </trkpt>
      <trkpt lat="48.95776" lon="7.61985">
        <ele>359.7</ele>
        <time>2012-08-15T16:32:42Z</time>
      </trkpt>
      <trkpt lat="48.95762" lon="7.61919">
        <ele>365</ele>
        <time>2012-08-15T16:33:21Z</time>
      </trkpt>
      <trkpt lat="48.95746" lon="7.6185">
        <ele>374.6</ele>
        <time>2012-08-15T16:34:00Z</time>
      </trkpt>
      <trkpt lat="48.9573" lon="7.61782">
        <ele>380.3</ele>
        <time>2012-08-15T16:34:36Z</time>
      </trkpt>
      <trkpt lat="48.95716" lon="7.61715">
        <ele>393.3</ele>
        <time>2012-08-15T16:35:13Z</time>
      </trkpt>
      <trkpt lat="48.95707" lon="7.61647">
        <ele>396.7</ele>
        <time>2012-08-15T16:35:56Z</time>
      </trkpt>
      <trkpt lat="48.95712" lon="7.6158">
        <ele>390.4</ele>
        <time>2012-08-15T16:36:30Z</time>
      </trkpt>
      <trkpt lat="48.95709" lon="7.61513">
        <ele>387.1</ele>
        <time>2012-08-15T16:37:06Z</time>
      </trkpt>
      <trkpt lat="48.9575" lon="7.61487">
        <ele>375.1</ele>
        <time>2012-08-15T16:37:55Z</time>
      </trkpt>
      <trkpt lat="48.95793" lon="7.61511">
        <ele>378.9</ele>
        <time>2012-08-15T16:39:02Z</time>
      </trkpt>
      <trkpt lat="48.95838" lon="7.61539">
        <ele>393.3</ele>
        <time>2012-08-15T16:39:47Z</time>
      </trkpt>
      <trkpt lat="48.95886" lon="7.6157">
        <ele>405.3</ele>
        <time>2012-08-15T16:40:42Z</time>
      </trkpt>
      <trkpt lat="48.9593" lon="7.61599">
        <ele>419.3</ele>
        <time>2012-08-15T16:41:30Z</time>
      </trkpt>
      <trkpt lat="48.9598" lon="7.61628">
        <ele>432.3</ele>
        <time>2012-08-15T16:42:21Z</time>
      </trkpt>
      <trkpt lat="48.96029" lon="7.61654">
        <ele>439</ele>
        <time>2012-08-15T16:43:07Z</time>
      </trkpt>
      <trkpt lat="48.96055" lon="7.61653">
        <ele>440.9</ele>
        <time>2012-08-15T16:44:20Z</time>
      </trkpt>
    </trkseg>
  </trk>
</gpx>